sensor_id;sensor_type;location;lat;lon;timestamp;pressure;altitude;pressure_sealevel;temperature;humidity
78841;BME280;68379;47.190;27.558;2024-01-30T00:01:39;102432.63;;;-5.20;84.11
78841;BME280;68379;47.190;27.558;2024-01-30T00:04:14;102431.13;;;-5.19;84.31
78841;BME280;68379;47.190;27.558;2024-01-30T00:06:46;102434.42;;;-5.19;84.37
78841;BME280;68379;47.190;27.558;2024-01-30T00:09:20;102435.00;;;-5.18;84.35
78841;BME280;68379;47.190;27.558;2024-01-30T00:11:53;102434.77;;;-5.17;84.33
78841;BME280;68379;47.190;27.558;2024-01-30T00:14:28;102436.17;;;-5.16;84.36
78841;BME280;68379;47.190;27.558;2024-01-30T00:17:03;102432.39;;;-5.16;84.40
78841;BME280;68379;47.190;27.558;2024-01-30T00:19:37;102433.04;;;-5.17;84.46
78841;BME280;68379;47.190;27.558;2024-01-30T00:22:12;102435.47;;;-5.16;84.58
78841;BME280;68379;47.190;27.558;2024-01-30T00:24:44;102433.91;;;-5.17;84.57
78841;BME280;68379;47.190;27.558;2024-01-30T00:27:16;102431.69;;;-5.16;84.58
78841;BME280;68379;47.190;27.558;2024-01-30T00:29:48;102430.97;;;-5.17;84.66
78841;BME280;68379;47.190;27.558;2024-01-30T00:32:21;102431.79;;;-5.17;84.67
78841;BME280;68379;47.190;27.558;2024-01-30T00:35:01;102423.50;;;-5.18;84.73
78841;BME280;68379;47.190;27.558;2024-01-30T00:37:35;102420.92;;;-5.17;84.82
78841;BME280;68379;47.190;27.558;2024-01-30T00:40:09;102419.58;;;-5.17;84.82
78841;BME280;68379;47.190;27.558;2024-01-30T00:42:47;102424.45;;;-5.16;84.95
78841;BME280;68379;47.190;27.558;2024-01-30T00:45:21;102424.48;;;-5.16;84.81
78841;BME280;68379;47.190;27.558;2024-01-30T00:47:56;102427.77;;;-5.15;84.75
78841;BME280;68379;47.190;27.558;2024-01-30T00:50:29;102429.41;;;-5.14;84.48
78841;BME280;68379;47.190;27.558;2024-01-30T00:53:00;102431.09;;;-5.12;84.64
78841;BME280;68379;47.190;27.558;2024-01-30T00:55:32;102428.39;;;-5.11;84.75
78841;BME280;68379;47.190;27.558;2024-01-30T00:58:04;102427.96;;;-5.10;84.94
78841;BME280;68379;47.190;27.558;2024-01-30T01:00:36;102425.52;;;-5.08;85.03
78841;BME280;68379;47.190;27.558;2024-01-30T01:03:08;102424.66;;;-5.05;85.10
78841;BME280;68379;47.190;27.558;2024-01-30T01:05:40;102424.15;;;-5.02;85.07
78841;BME280;68379;47.190;27.558;2024-01-30T01:08:12;102419.50;;;-4.99;85.08
78841;BME280;68379;47.190;27.558;2024-01-30T01:10:45;102418.08;;;-4.98;84.97
78841;BME280;68379;47.190;27.558;2024-01-30T01:13:17;102418.07;;;-4.95;84.98
78841;BME280;68379;47.190;27.558;2024-01-30T01:15:49;102418.19;;;-4.93;84.89
78841;BME280;68379;47.190;27.558;2024-01-30T01:18:23;102408.82;;;-4.94;84.71
78841;BME280;68379;47.190;27.558;2024-01-30T01:20:55;102409.45;;;-4.92;84.81
78841;BME280;68379;47.190;27.558;2024-01-30T01:23:27;102403.94;;;-4.92;84.51
78841;BME280;68379;47.190;27.558;2024-01-30T01:26:00;102404.41;;;-4.93;84.48
78841;BME280;68379;47.190;27.558;2024-01-30T01:28:34;102402.25;;;-4.95;84.35
78841;BME280;68379;47.190;27.558;2024-01-30T01:31:06;102402.43;;;-4.97;84.28
78841;BME280;68379;47.190;27.558;2024-01-30T01:33:41;102398.16;;;-4.99;84.35
78841;BME280;68379;47.190;27.558;2024-01-30T01:36:17;102399.14;;;-5.00;84.42
78841;BME280;68379;47.190;27.558;2024-01-30T01:38:52;102399.57;;;-5.01;84.46
78841;BME280;68379;47.190;27.558;2024-01-30T01:41:25;102401.67;;;-5.01;84.44
78841;BME280;68379;47.190;27.558;2024-01-30T01:43:57;102400.59;;;-5.02;84.46
78841;BME280;68379;47.190;27.558;2024-01-30T01:46:33;102399.58;;;-5.01;84.62
78841;BME280;68379;47.190;27.558;2024-01-30T01:49:08;102397.88;;;-5.01;84.69
78841;BME280;68379;47.190;27.558;2024-01-30T01:51:41;102394.63;;;-5.01;84.79
78841;BME280;68379;47.190;27.558;2024-01-30T01:54:15;102392.73;;;-5.00;84.79
78841;BME280;68379;47.190;27.558;2024-01-30T01:56:48;102389.52;;;-4.99;84.80
78841;BME280;68379;47.190;27.558;2024-01-30T01:59:21;102395.77;;;-4.99;84.88
78841;BME280;68379;47.190;27.558;2024-01-30T02:01:55;102398.35;;;-4.99;84.80
78841;BME280;68379;47.190;27.558;2024-01-30T02:04:28;102390.09;;;-4.99;84.79
78841;BME280;68379;47.190;27.558;2024-01-30T02:07:00;102385.92;;;-4.99;84.85
78841;BME280;68379;47.190;27.558;2024-01-30T02:09:32;102384.05;;;-4.99;84.91
78841;BME280;68379;47.190;27.558;2024-01-30T02:12:05;102386.14;;;-4.98;85.03
78841;BME280;68379;47.190;27.558;2024-01-30T02:14:46;102385.52;;;-4.97;85.03
78841;BME280;68379;47.190;27.558;2024-01-30T02:17:20;102377.48;;;-4.96;85.06
78841;BME280;68379;47.190;27.558;2024-01-30T02:19:54;102373.07;;;-4.95;85.10
78841;BME280;68379;47.190;27.558;2024-01-30T02:22:27;102372.08;;;-4.95;85.09
78841;BME280;68379;47.190;27.558;2024-01-30T02:24:59;102368.64;;;-4.94;85.17
78841;BME280;68379;47.190;27.558;2024-01-30T02:27:34;102373.56;;;-4.93;85.31
78841;BME280;68379;47.190;27.558;2024-01-30T02:30:08;102375.02;;;-4.92;85.19
78841;BME280;68379;47.190;27.558;2024-01-30T02:32:43;102375.06;;;-4.91;85.17
78841;BME280;68379;47.190;27.558;2024-01-30T02:35:17;102376.35;;;-4.93;85.05
78841;BME280;68379;47.190;27.558;2024-01-30T02:37:50;102377.97;;;-4.94;84.85
78841;BME280;68379;47.190;27.558;2024-01-30T02:40:21;102372.30;;;-4.96;84.82
78841;BME280;68379;47.190;27.558;2024-01-30T02:42:53;102373.94;;;-4.98;84.85
78841;BME280;68379;47.190;27.558;2024-01-30T02:45:25;102372.20;;;-5.01;84.82
78841;BME280;68379;47.190;27.558;2024-01-30T02:47:58;102366.53;;;-5.03;84.71
78841;BME280;68379;47.190;27.558;2024-01-30T02:50:34;102370.68;;;-5.05;84.78
78841;BME280;68379;47.190;27.558;2024-01-30T02:53:07;102365.61;;;-5.07;84.81
78841;BME280;68379;47.190;27.558;2024-01-30T02:55:41;102362.31;;;-5.07;84.87
78841;BME280;68379;47.190;27.558;2024-01-30T02:58:14;102357.52;;;-5.06;84.88
78841;BME280;68379;47.190;27.558;2024-01-30T03:00:46;102357.08;;;-5.05;84.88
78841;BME280;68379;47.190;27.558;2024-01-30T03:03:19;102347.16;;;-5.04;84.86
78841;BME280;68379;47.190;27.558;2024-01-30T03:05:53;102341.91;;;-5.03;84.95
78841;BME280;68379;47.190;27.558;2024-01-30T03:08:28;102342.81;;;-5.02;84.96
78841;BME280;68379;47.190;27.558;2024-01-30T03:11:00;102341.23;;;-5.00;85.07
78841;BME280;68379;47.190;27.558;2024-01-30T03:13:35;102341.27;;;-4.97;85.05
78841;BME280;68379;47.190;27.558;2024-01-30T03:16:08;102341.59;;;-4.94;84.80
78841;BME280;68379;47.190;27.558;2024-01-30T03:18:40;102336.31;;;-4.93;84.74
78841;BME280;68379;47.190;27.558;2024-01-30T03:21:12;102337.46;;;-4.91;84.63
78841;BME280;68379;47.190;27.558;2024-01-30T03:23:45;102332.11;;;-4.89;84.58
78841;BME280;68379;47.190;27.558;2024-01-30T03:26:19;102337.98;;;-4.89;84.44
78841;BME280;68379;47.190;27.558;2024-01-30T03:28:52;102337.60;;;-4.89;84.23
78841;BME280;68379;47.190;27.558;2024-01-30T03:31:26;102337.84;;;-4.91;84.13
78841;BME280;68379;47.190;27.558;2024-01-30T03:33:59;102341.89;;;-4.95;83.94
78841;BME280;68379;47.190;27.558;2024-01-30T03:36:33;102340.60;;;-4.99;84.00
78841;BME280;68379;47.190;27.558;2024-01-30T03:39:05;102345.58;;;-5.02;83.91
78841;BME280;68379;47.190;27.558;2024-01-30T03:41:38;102344.56;;;-5.04;83.95
78841;BME280;68379;47.190;27.558;2024-01-30T03:44:14;102342.55;;;-5.06;84.00
78841;BME280;68379;47.190;27.558;2024-01-30T03:46:49;102345.26;;;-5.10;84.01
78841;BME280;68379;47.190;27.558;2024-01-30T03:49:23;102344.79;;;-5.11;84.12
78841;BME280;68379;47.190;27.558;2024-01-30T03:51:55;102337.74;;;-5.14;84.12
78841;BME280;68379;47.190;27.558;2024-01-30T03:54:27;102339.99;;;-5.16;84.03
78841;BME280;68379;47.190;27.558;2024-01-30T03:56:59;102342.38;;;-5.20;84.03
78841;BME280;68379;47.190;27.558;2024-01-30T03:59:30;102342.58;;;-5.22;84.13
78841;BME280;68379;47.190;27.558;2024-01-30T04:02:03;102344.64;;;-5.25;84.09
78841;BME280;68379;47.190;27.558;2024-01-30T04:04:34;102345.02;;;-5.27;84.15
78841;BME280;68379;47.190;27.558;2024-01-30T04:07:07;102341.98;;;-5.29;84.21
78841;BME280;68379;47.190;27.558;2024-01-30T04:09:39;102340.23;;;-5.29;84.36
78841;BME280;68379;47.190;27.558;2024-01-30T04:12:12;102346.23;;;-5.30;84.22
78841;BME280;68379;47.190;27.558;2024-01-30T04:14:44;102342.67;;;-5.31;84.34
78841;BME280;68379;47.190;27.558;2024-01-30T04:17:16;102343.41;;;-5.33;84.14
78841;BME280;68379;47.190;27.558;2024-01-30T04:19:48;102338.73;;;-5.34;84.34
78841;BME280;68379;47.190;27.558;2024-01-30T04:22:20;102338.56;;;-5.34;84.36
78841;BME280;68379;47.190;27.558;2024-01-30T04:24:52;102338.17;;;-5.34;84.48
78841;BME280;68379;47.190;27.558;2024-01-30T04:27:24;102337.54;;;-5.33;84.61
78841;BME280;68379;47.190;27.558;2024-01-30T04:30:00;102337.21;;;-5.33;84.64
78841;BME280;68379;47.190;27.558;2024-01-30T04:32:32;102337.98;;;-5.32;84.59
78841;BME280;68379;47.190;27.558;2024-01-30T04:35:04;102339.13;;;-5.30;84.53
78841;BME280;68379;47.190;27.558;2024-01-30T04:37:37;102343.00;;;-5.26;84.61
78841;BME280;68379;47.190;27.558;2024-01-30T04:40:10;102350.57;;;-5.23;84.60
78841;BME280;68379;47.190;27.558;2024-01-30T04:42:42;102348.07;;;-5.22;84.49
78841;BME280;68379;47.190;27.558;2024-01-30T04:45:14;102350.36;;;-5.21;84.30
78841;BME280;68379;47.190;27.558;2024-01-30T04:47:45;102350.88;;;-5.21;84.38
78841;BME280;68379;47.190;27.558;2024-01-30T04:50:20;102352.35;;;-5.22;84.36
78841;BME280;68379;47.190;27.558;2024-01-30T04:52:53;102352.32;;;-5.23;84.49
78841;BME280;68379;47.190;27.558;2024-01-30T04:55:26;102355.36;;;-5.24;84.37
78841;BME280;68379;47.190;27.558;2024-01-30T04:57:58;102353.36;;;-5.25;84.47
78841;BME280;68379;47.190;27.558;2024-01-30T05:00:30;102354.52;;;-5.26;84.40
78841;BME280;68379;47.190;27.558;2024-01-30T05:03:06;102355.36;;;-5.26;84.39
78841;BME280;68379;47.190;27.558;2024-01-30T05:05:41;102359.52;;;-5.26;84.37
78841;BME280;68379;47.190;27.558;2024-01-30T05:08:13;102360.09;;;-5.25;84.40
78841;BME280;68379;47.190;27.558;2024-01-30T05:10:46;102359.61;;;-5.25;84.28
78841;BME280;68379;47.190;27.558;2024-01-30T05:13:18;102359.59;;;-5.25;84.32
78841;BME280;68379;47.190;27.558;2024-01-30T05:15:52;102356.73;;;-5.26;84.08
78841;BME280;68379;47.190;27.558;2024-01-30T05:18:25;102358.29;;;-5.27;84.17
78841;BME280;68379;47.190;27.558;2024-01-30T05:20:59;102351.19;;;-5.27;84.20
78841;BME280;68379;47.190;27.558;2024-01-30T05:23:32;102355.20;;;-5.26;84.33
78841;BME280;68379;47.190;27.558;2024-01-30T05:26:05;102352.33;;;-5.25;84.35
78841;BME280;68379;47.190;27.558;2024-01-30T05:28:37;102347.69;;;-5.25;84.26
78841;BME280;68379;47.190;27.558;2024-01-30T05:31:09;102349.42;;;-5.25;84.29
78841;BME280;68379;47.190;27.558;2024-01-30T05:33:43;102353.66;;;-5.26;84.22
78841;BME280;68379;47.190;27.558;2024-01-30T05:36:16;102355.20;;;-5.27;84.34
78841;BME280;68379;47.190;27.558;2024-01-30T05:38:48;102356.16;;;-5.28;84.17
78841;BME280;68379;47.190;27.558;2024-01-30T05:41:22;102353.95;;;-5.27;84.22
78841;BME280;68379;47.190;27.558;2024-01-30T05:43:55;102350.80;;;-5.25;84.30
78841;BME280;68379;47.190;27.558;2024-01-30T05:46:26;102355.18;;;-5.24;84.33
78841;BME280;68379;47.190;27.558;2024-01-30T05:48:58;102357.39;;;-5.22;84.23
78841;BME280;68379;47.190;27.558;2024-01-30T05:51:30;102354.57;;;-5.20;84.16
78841;BME280;68379;47.190;27.558;2024-01-30T05:54:02;102357.98;;;-5.18;84.17
78841;BME280;68379;47.190;27.558;2024-01-30T05:56:36;102351.15;;;-5.17;84.39
78841;BME280;68379;47.190;27.558;2024-01-30T05:59:08;102354.09;;;-5.14;84.40
78841;BME280;68379;47.190;27.558;2024-01-30T06:01:47;102354.77;;;-5.12;84.34
78841;BME280;68379;47.190;27.558;2024-01-30T06:04:19;102344.94;;;-5.09;84.35
78841;BME280;68379;47.190;27.558;2024-01-30T06:06:52;102343.35;;;-5.07;84.26
78841;BME280;68379;47.190;27.558;2024-01-30T06:09:24;102340.24;;;-5.05;84.31
78841;BME280;68379;47.190;27.558;2024-01-30T06:11:56;102337.88;;;-5.01;84.31
78841;BME280;68379;47.190;27.558;2024-01-30T06:14:28;102340.14;;;-4.98;84.24
78841;BME280;68379;47.190;27.558;2024-01-30T06:16:59;102343.80;;;-4.95;84.19
78841;BME280;68379;47.190;27.558;2024-01-30T06:19:32;102344.35;;;-4.89;84.21
78841;BME280;68379;47.190;27.558;2024-01-30T06:22:03;102346.83;;;-4.82;84.09
78841;BME280;68379;47.190;27.558;2024-01-30T06:24:35;102343.09;;;-4.76;84.15
78841;BME280;68379;47.190;27.558;2024-01-30T06:27:10;102346.55;;;-4.67;84.20
78841;BME280;68379;47.190;27.558;2024-01-30T06:29:42;102342.65;;;-4.58;84.03
78841;BME280;68379;47.190;27.558;2024-01-30T06:32:15;102342.63;;;-4.47;84.00
78841;BME280;68379;47.190;27.558;2024-01-30T06:34:48;102341.59;;;-4.36;83.90
78841;BME280;68379;47.190;27.558;2024-01-30T06:37:21;102343.77;;;-4.26;83.90
78841;BME280;68379;47.190;27.558;2024-01-30T06:39:55;102343.41;;;-4.15;83.89
78841;BME280;68379;47.190;27.558;2024-01-30T06:42:26;102342.52;;;-4.04;83.68
78841;BME280;68379;47.190;27.558;2024-01-30T06:44:58;102340.59;;;-3.95;83.58
78841;BME280;68379;47.190;27.558;2024-01-30T06:47:30;102340.93;;;-3.87;83.48
78841;BME280;68379;47.190;27.558;2024-01-30T06:50:02;102337.00;;;-3.77;83.33
78841;BME280;68379;47.190;27.558;2024-01-30T06:52:42;102331.01;;;-3.70;83.19
78841;BME280;68379;47.190;27.558;2024-01-30T06:55:30;102332.39;;;-3.65;83.09
78841;BME280;68379;47.190;27.558;2024-01-30T06:58:02;102322.21;;;-3.61;82.97
78841;BME280;68379;47.190;27.558;2024-01-30T07:00:34;102325.27;;;-3.60;82.82
78841;BME280;68379;47.190;27.558;2024-01-30T07:03:06;102324.86;;;-3.54;83.04
78841;BME280;68379;47.190;27.558;2024-01-30T07:05:38;102324.27;;;-3.49;82.87
78841;BME280;68379;47.190;27.558;2024-01-30T07:11:02;102320.67;;;-3.37;82.78
78841;BME280;68379;47.190;27.558;2024-01-30T07:13:34;102318.65;;;-3.30;82.60
78841;BME280;68379;47.190;27.558;2024-01-30T07:16:07;102319.30;;;-3.22;82.59
78841;BME280;68379;47.190;27.558;2024-01-30T07:18:39;102302.14;;;-3.22;82.54
78841;BME280;68379;47.190;27.558;2024-01-30T07:21:11;102319.95;;;-2.97;82.51
78841;BME280;68379;47.190;27.558;2024-01-30T07:23:44;102316.23;;;-2.83;82.38
78841;BME280;68379;47.190;27.558;2024-01-30T07:26:16;102312.51;;;-2.69;82.45
78841;BME280;68379;47.190;27.558;2024-01-30T07:28:49;102308.86;;;-2.56;82.61
78841;BME280;68379;47.190;27.558;2024-01-30T07:31:23;102303.84;;;-2.43;82.44
78841;BME280;68379;47.190;27.558;2024-01-30T07:34:00;102306.75;;;-2.31;82.31
78841;BME280;68379;47.190;27.558;2024-01-30T07:36:35;102307.90;;;-2.19;82.04
78841;BME280;68379;47.190;27.558;2024-01-30T07:39:08;102300.52;;;-2.08;82.06
78841;BME280;68379;47.190;27.558;2024-01-30T07:41:41;102298.70;;;-1.96;82.07
78841;BME280;68379;47.190;27.558;2024-01-30T07:44:14;102302.09;;;-1.86;81.84
78841;BME280;68379;47.190;27.558;2024-01-30T07:46:48;102303.92;;;-1.78;81.98
78841;BME280;68379;47.190;27.558;2024-01-30T07:49:24;102301.80;;;-1.68;81.89
78841;BME280;68379;47.190;27.558;2024-01-30T07:51:56;102300.08;;;-1.58;81.76
78841;BME280;68379;47.190;27.558;2024-01-30T07:54:30;102296.90;;;-1.44;81.88
78841;BME280;68379;47.190;27.558;2024-01-30T07:57:04;102295.05;;;-1.29;81.67
78841;BME280;68379;47.190;27.558;2024-01-30T07:59:35;102287.38;;;-1.12;81.65
78841;BME280;68379;47.190;27.558;2024-01-30T08:02:07;102285.14;;;-1.00;81.46
78841;BME280;68379;47.190;27.558;2024-01-30T08:04:42;102283.27;;;-0.89;81.57
78841;BME280;68379;47.190;27.558;2024-01-30T08:07:18;102279.20;;;-0.83;81.13
78841;BME280;68379;47.190;27.558;2024-01-30T08:09:51;102267.16;;;-0.77;81.40
78841;BME280;68379;47.190;27.558;2024-01-30T08:12:22;102267.98;;;-0.74;81.53
78841;BME280;68379;47.190;27.558;2024-01-30T08:14:54;102270.02;;;-0.75;81.67
78841;BME280;68379;47.190;27.558;2024-01-30T08:17:26;102276.85;;;-0.73;81.26
78841;BME280;68379;47.190;27.558;2024-01-30T08:20:00;102274.24;;;-0.70;81.29
78841;BME280;68379;47.190;27.558;2024-01-30T08:22:34;102279.48;;;-0.66;80.47
78841;BME280;68379;47.190;27.558;2024-01-30T08:25:07;102277.81;;;-0.60;80.65
78841;BME280;68379;47.190;27.558;2024-01-30T08:27:41;102274.45;;;-0.53;80.72
78841;BME280;68379;47.190;27.558;2024-01-30T08:30:14;102275.25;;;-0.47;80.57
78841;BME280;68379;47.190;27.558;2024-01-30T08:32:50;102271.15;;;-0.42;80.79
78841;BME280;68379;47.190;27.558;2024-01-30T08:35:38;102271.90;;;-0.37;80.35
78841;BME280;68379;47.190;27.558;2024-01-30T08:38:14;102271.91;;;-0.29;80.25
78841;BME280;68379;47.190;27.558;2024-01-30T08:40:46;102269.33;;;-0.20;79.91
78841;BME280;68379;47.190;27.558;2024-01-30T08:43:23;102270.30;;;-0.09;80.04
78841;BME280;68379;47.190;27.558;2024-01-30T08:45:55;102259.05;;;-0.00;79.99
78841;BME280;68379;47.190;27.558;2024-01-30T08:51:15;102249.67;;;0.20;80.38
78841;BME280;68379;47.190;27.558;2024-01-30T08:53:49;102250.29;;;0.31;80.30
78841;BME280;68379;47.190;27.558;2024-01-30T08:56:25;102246.64;;;0.40;79.11
78841;BME280;68379;47.190;27.558;2024-01-30T08:58:56;102242.53;;;0.37;79.83
78841;BME280;68379;47.190;27.558;2024-01-30T09:01:30;102240.34;;;0.39;80.13
78841;BME280;68379;47.190;27.558;2024-01-30T09:04:04;102240.35;;;0.39;79.47
78841;BME280;68379;47.190;27.558;2024-01-30T09:06:38;102239.50;;;0.48;79.94
78841;BME280;68379;47.190;27.558;2024-01-30T09:09:11;102238.31;;;0.53;79.89
78841;BME280;68379;47.190;27.558;2024-01-30T09:11:44;102238.70;;;0.63;79.39
78841;BME280;68379;47.190;27.558;2024-01-30T09:14:17;102242.27;;;0.70;77.88
78841;BME280;68379;47.190;27.558;2024-01-30T09:16:49;102242.11;;;0.66;78.16
78841;BME280;68379;47.190;27.558;2024-01-30T09:19:25;102239.16;;;0.66;76.81
78841;BME280;68379;47.190;27.558;2024-01-30T09:22:01;102236.52;;;0.70;76.92
78841;BME280;68379;47.190;27.558;2024-01-30T09:24:33;102243.46;;;0.74;76.63
78841;BME280;68379;47.190;27.558;2024-01-30T09:27:06;102241.84;;;0.80;77.87
78841;BME280;68379;47.190;27.558;2024-01-30T09:29:38;102240.38;;;0.93;78.01
78841;BME280;68379;47.190;27.558;2024-01-30T09:32:10;102235.13;;;1.06;76.57
78841;BME280;68379;47.190;27.558;2024-01-30T09:34:42;102236.27;;;1.04;74.46
78841;BME280;68379;47.190;27.558;2024-01-30T09:37:15;102239.14;;;1.05;74.92
78841;BME280;68379;47.190;27.558;2024-01-30T09:39:48;102233.31;;;1.13;77.31
78841;BME280;68379;47.190;27.558;2024-01-30T09:42:29;102233.66;;;1.22;77.17
78841;BME280;68379;47.190;27.558;2024-01-30T09:45:07;102231.27;;;1.33;77.85
78841;BME280;68379;47.190;27.558;2024-01-30T09:47:41;102232.67;;;1.38;75.61
78841;BME280;68379;47.190;27.558;2024-01-30T09:50:14;102235.67;;;1.34;75.02
78841;BME280;68379;47.190;27.558;2024-01-30T09:52:46;102239.11;;;1.37;74.56
78841;BME280;68379;47.190;27.558;2024-01-30T09:55:18;102240.09;;;1.45;76.35
78841;BME280;68379;47.190;27.558;2024-01-30T09:57:51;102236.11;;;1.51;72.20
78841;BME280;68379;47.190;27.558;2024-01-30T10:00:23;102235.72;;;1.50;72.94
78841;BME280;68379;47.190;27.558;2024-01-30T10:02:55;102232.10;;;1.51;72.48
78841;BME280;68379;47.190;27.558;2024-01-30T10:05:28;102220.63;;;1.52;74.87
78841;BME280;68379;47.190;27.558;2024-01-30T10:08:07;102218.46;;;1.64;73.55
78841;BME280;68379;47.190;27.558;2024-01-30T10:10:39;102217.09;;;1.75;73.99
78841;BME280;68379;47.190;27.558;2024-01-30T10:13:12;102216.18;;;1.84;72.56
78841;BME280;68379;47.190;27.558;2024-01-30T10:15:43;102211.13;;;1.88;74.62
78841;BME280;68379;47.190;27.558;2024-01-30T10:18:16;102204.67;;;1.89;71.65
78841;BME280;68379;47.190;27.558;2024-01-30T10:20:48;102199.50;;;1.85;70.55
78841;BME280;68379;47.190;27.558;2024-01-30T10:23:21;102198.69;;;1.87;73.63
78841;BME280;68379;47.190;27.558;2024-01-30T10:25:58;102190.36;;;1.94;70.94
78841;BME280;68379;47.190;27.558;2024-01-30T10:28:30;102188.28;;;1.94;72.64
78841;BME280;68379;47.190;27.558;2024-01-30T10:31:02;102178.41;;;1.96;71.75
78841;BME280;68379;47.190;27.558;2024-01-30T10:33:35;102171.23;;;2.00;72.37
78841;BME280;68379;47.190;27.558;2024-01-30T10:36:09;102169.40;;;2.08;72.67
78841;BME280;68379;47.190;27.558;2024-01-30T10:38:44;102173.16;;;2.22;72.75
78841;BME280;68379;47.190;27.558;2024-01-30T10:41:22;102172.66;;;2.34;71.68
78841;BME280;68379;47.190;27.558;2024-01-30T10:44:02;102174.40;;;2.45;72.47
78841;BME280;68379;47.190;27.558;2024-01-30T10:46:34;102167.62;;;2.50;71.63
78841;BME280;68379;47.190;27.558;2024-01-30T10:49:07;102164.00;;;2.52;71.59
78841;BME280;68379;47.190;27.558;2024-01-30T10:51:40;102161.73;;;2.58;71.84
78841;BME280;68379;47.190;27.558;2024-01-30T10:54:13;102161.08;;;2.65;71.35
78841;BME280;68379;47.190;27.558;2024-01-30T10:56:45;102167.13;;;2.69;70.97
78841;BME280;68379;47.190;27.558;2024-01-30T10:59:17;102162.25;;;2.69;70.51
78841;BME280;68379;47.190;27.558;2024-01-30T11:01:50;102161.87;;;2.68;68.92
78841;BME280;68379;47.190;27.558;2024-01-30T11:04:22;102161.00;;;2.68;68.53
78841;BME280;68379;47.190;27.558;2024-01-30T11:06:55;102158.44;;;2.70;69.52
78841;BME280;68379;47.190;27.558;2024-01-30T11:09:30;102152.55;;;2.72;68.10
78841;BME280;68379;47.190;27.558;2024-01-30T11:12:13;102150.33;;;2.73;68.74
78841;BME280;68379;47.190;27.558;2024-01-30T11:14:45;102145.48;;;2.75;67.62
78841;BME280;68379;47.190;27.558;2024-01-30T11:17:17;102146.45;;;2.78;68.79
78841;BME280;68379;47.190;27.558;2024-01-30T11:19:49;102143.75;;;2.88;69.06
78841;BME280;68379;47.190;27.558;2024-01-30T11:22:24;102138.58;;;2.95;66.77
78841;BME280;68379;47.190;27.558;2024-01-30T11:24:58;102135.48;;;2.97;65.96
78841;BME280;68379;47.190;27.558;2024-01-30T11:27:32;102136.75;;;2.99;67.55
78841;BME280;68379;47.190;27.558;2024-01-30T11:30:10;102130.54;;;3.01;67.52
78841;BME280;68379;47.190;27.558;2024-01-30T11:32:45;102125.19;;;3.04;67.47
78841;BME280;68379;47.190;27.558;2024-01-30T11:35:17;102118.33;;;3.08;67.21
78841;BME280;68379;47.190;27.558;2024-01-30T11:37:50;102116.23;;;3.14;67.47
78841;BME280;68379;47.190;27.558;2024-01-30T11:40:23;102112.56;;;3.14;67.24
78841;BME280;68379;47.190;27.558;2024-01-30T11:42:58;102106.27;;;3.14;67.20
78841;BME280;68379;47.190;27.558;2024-01-30T11:45:31;102103.10;;;3.20;67.43
78841;BME280;68379;47.190;27.558;2024-01-30T11:48:05;102100.75;;;3.30;66.87
78841;BME280;68379;47.190;27.558;2024-01-30T11:50:40;102094.52;;;3.46;67.00
78841;BME280;68379;47.190;27.558;2024-01-30T11:53:12;102087.33;;;3.58;66.80
78841;BME280;68379;47.190;27.558;2024-01-30T11:55:51;102083.52;;;3.67;66.33
78841;BME280;68379;47.190;27.558;2024-01-30T11:58:26;102079.91;;;3.69;67.37
78841;BME280;68379;47.190;27.558;2024-01-30T12:00:58;102076.59;;;3.76;66.51
78841;BME280;68379;47.190;27.558;2024-01-30T12:03:31;102069.31;;;3.86;66.54
78841;BME280;68379;47.190;27.558;2024-01-30T12:06:06;102070.93;;;3.88;66.42
78841;BME280;68379;47.190;27.558;2024-01-30T12:08:38;102066.91;;;3.88;66.31
78841;BME280;68379;47.190;27.558;2024-01-30T12:11:11;102066.37;;;3.87;65.99
78841;BME280;68379;47.190;27.558;2024-01-30T12:13:43;102068.17;;;3.90;65.87
78841;BME280;68379;47.190;27.558;2024-01-30T12:16:14;102068.41;;;3.85;64.67
78841;BME280;68379;47.190;27.558;2024-01-30T12:18:46;102065.80;;;3.85;65.03
78841;BME280;68379;47.190;27.558;2024-01-30T12:21:19;102060.73;;;3.85;65.57
78841;BME280;68379;47.190;27.558;2024-01-30T12:23:51;102066.08;;;3.83;65.98
78841;BME280;68379;47.190;27.558;2024-01-30T12:26:23;102062.25;;;3.83;65.59
78841;BME280;68379;47.190;27.558;2024-01-30T12:28:58;102055.61;;;3.83;65.61
78841;BME280;68379;47.190;27.558;2024-01-30T12:31:33;102054.52;;;3.82;65.23
78841;BME280;68379;47.190;27.558;2024-01-30T12:34:05;102053.77;;;3.80;64.49
78841;BME280;68379;47.190;27.558;2024-01-30T12:36:37;102049.88;;;3.85;64.90
78841;BME280;68379;47.190;27.558;2024-01-30T12:39:12;102052.64;;;3.91;65.15
78841;BME280;68379;47.190;27.558;2024-01-30T12:41:44;102053.77;;;3.94;64.62
78841;BME280;68379;47.190;27.558;2024-01-30T12:44:17;102048.48;;;3.93;64.48
78841;BME280;68379;47.190;27.558;2024-01-30T12:46:48;102050.20;;;3.92;63.67
78841;BME280;68379;47.190;27.558;2024-01-30T12:49:20;102047.56;;;3.98;63.96
78841;BME280;68379;47.190;27.558;2024-01-30T12:51:51;102043.96;;;4.02;64.08
78841;BME280;68379;47.190;27.558;2024-01-30T12:54:24;102038.41;;;3.96;62.54
78841;BME280;68379;47.190;27.558;2024-01-30T12:56:56;102038.80;;;3.90;64.42
78841;BME280;68379;47.190;27.558;2024-01-30T12:59:27;102041.14;;;3.86;64.28
78841;BME280;68379;47.190;27.558;2024-01-30T13:02:01;102039.92;;;3.86;64.24
78841;BME280;68379;47.190;27.558;2024-01-30T13:04:33;102040.81;;;3.86;64.30
78841;BME280;68379;47.190;27.558;2024-01-30T13:07:05;102038.71;;;3.86;64.07
78841;BME280;68379;47.190;27.558;2024-01-30T13:09:37;102038.86;;;3.85;63.50
78841;BME280;68379;47.190;27.558;2024-01-30T13:12:11;102036.50;;;3.82;63.16
78841;BME280;68379;47.190;27.558;2024-01-30T13:14:44;102038.02;;;3.79;63.34
78841;BME280;68379;47.190;27.558;2024-01-30T13:17:16;102041.00;;;3.79;63.96
78841;BME280;68379;47.190;27.558;2024-01-30T13:19:50;102040.91;;;3.76;63.17